createdAt,value
2022-11-28T00:01:07.694Z,6.50
2022-11-28T00:03:34.573Z,6.50
2022-11-28T00:06:05.575Z,6.40
2022-11-28T00:08:33.329Z,6.40
2022-11-28T00:11:07.270Z,6.50
2022-11-28T00:13:34.629Z,6.40
2022-11-28T00:16:02.363Z,6.50
2022-11-28T00:18:29.448Z,6.40
2022-11-28T00:21:04.397Z,6.40
2022-11-28T00:23:31.958Z,6.40
2022-11-28T00:26:18.985Z,6.40
2022-11-28T00:28:46.293Z,6.40
2022-11-28T00:31:18.386Z,6.40
2022-11-28T00:33:45.234Z,6.40
2022-11-28T00:36:12.568Z,6.30
2022-11-28T00:38:39.585Z,6.40
2022-11-28T00:41:08.252Z,6.40
2022-11-28T00:43:35.318Z,6.30
2022-11-28T00:46:02.670Z,6.30
2022-11-28T00:48:29.569Z,6.30
2022-11-28T00:51:05.105Z,6.40
2022-11-28T00:53:31.868Z,6.30
2022-11-28T00:55:58.600Z,6.40
2022-11-28T00:58:25.344Z,6.40
2022-11-28T01:00:52.151Z,6.30
2022-11-28T01:03:18.928Z,6.30
2022-11-28T01:05:45.905Z,6.40
2022-11-28T01:08:12.669Z,6.40
2022-11-28T01:10:42.501Z,6.40
2022-11-28T01:13:10.055Z,6.40
2022-11-28T01:15:37.069Z,6.40
2022-11-28T01:18:03.864Z,6.40
2022-11-28T01:20:30.578Z,6.40
2022-11-28T01:22:57.561Z,6.50
2022-11-28T01:25:24.798Z,6.50
2022-11-28T01:27:51.520Z,6.60
2022-11-28T01:30:18.384Z,6.60
2022-11-28T01:32:45.133Z,6.70
2022-11-28T01:35:11.885Z,6.70
2022-11-28T01:37:38.798Z,6.70
2022-11-28T01:40:05.994Z,6.70
2022-11-28T01:42:32.744Z,6.80
2022-11-28T01:45:13.314Z,6.80
2022-11-28T01:47:40.400Z,6.80
2022-11-28T01:50:07.863Z,6.70
2022-11-28T01:52:36.603Z,6.60
2022-11-28T01:55:03.842Z,6.60
2022-11-28T01:57:30.825Z,6.60
2022-11-28T02:00:17.801Z,6.70
2022-11-28T02:03:00.810Z,6.70
2022-11-28T02:05:27.537Z,6.70
2022-11-28T02:07:54.367Z,6.70
2022-11-28T02:10:26.476Z,6.70
2022-11-28T02:12:59.484Z,6.70
2022-11-28T02:15:45.080Z,6.70
2022-11-28T02:18:13.225Z,6.70
2022-11-28T02:20:58.770Z,6.70
2022-11-28T02:23:45.816Z,6.70
2022-11-28T02:26:36.572Z,6.80
2022-11-28T02:29:13.736Z,6.70
2022-11-28T02:32:05.661Z,6.80
2022-11-28T02:34:37.323Z,6.80
2022-11-28T02:37:13.216Z,6.80
2022-11-28T02:39:42.967Z,6.80
2022-11-28T02:42:21.996Z,6.90
2022-11-28T02:45:00.233Z,6.90
2022-11-28T02:47:34.120Z,6.90
2022-11-28T02:50:07.403Z,6.90
2022-11-28T02:52:47.355Z,6.80
2022-11-28T02:55:14.701Z,6.90
2022-11-28T02:57:42.865Z,6.90
2022-11-28T03:06:24.186Z,6.80
2022-11-28T03:09:01.318Z,6.80
2022-11-28T03:11:43.505Z,6.80
2022-11-28T03:14:23.725Z,6.80
2022-11-28T03:17:09.364Z,6.80
2022-11-28T03:19:54.419Z,6.90
2022-11-28T03:22:40.196Z,6.90
2022-11-28T03:25:20.827Z,6.90
2022-11-28T03:27:51.808Z,6.90
2022-11-28T03:30:23.957Z,6.90
2022-11-28T03:32:52.589Z,6.80
2022-11-28T03:35:21.261Z,6.80
2022-11-28T03:37:53.430Z,6.80
2022-11-28T03:40:28.076Z,6.80
2022-11-28T03:42:58.517Z,6.80
2022-11-28T03:45:26.686Z,6.80
2022-11-28T03:48:03.662Z,6.70
2022-11-28T03:50:56.814Z,6.70
2022-11-28T03:53:26.333Z,6.70
2022-11-28T03:56:04.348Z,6.60
2022-11-28T03:58:34.841Z,6.60
2022-11-28T04:01:20.480Z,6.60
2022-11-28T04:04:10.151Z,6.60
2022-11-28T04:06:40.122Z,6.60
2022-11-28T04:09:14.392Z,6.60
2022-11-28T04:11:45.182Z,6.50
2022-11-28T04:14:23.734Z,6.60
2022-11-28T04:17:11.862Z,6.60
2022-11-28T04:19:43.167Z,6.50
2022-11-28T04:22:18.865Z,6.40
2022-11-28T04:24:48.760Z,6.40
2022-11-28T04:27:18.281Z,6.40
2022-11-28T04:29:51.187Z,6.50
2022-11-28T04:32:19.738Z,6.50
2022-11-28T04:34:49.656Z,6.50
2022-11-28T04:37:16.986Z,6.50
2022-11-28T04:39:47.256Z,6.50
2022-11-28T04:42:16.405Z,6.50
2022-11-28T04:44:48.087Z,6.40
2022-11-28T04:47:15.560Z,6.40
2022-11-28T04:49:42.521Z,6.50
2022-11-28T04:52:23.328Z,6.50
2022-11-28T04:54:57.192Z,6.50
2022-11-28T04:57:30.159Z,6.50
2022-11-28T04:59:57.230Z,6.40
2022-11-28T05:02:24.804Z,6.40
2022-11-28T05:04:55.612Z,6.50
2022-11-28T05:07:24.211Z,6.50
2022-11-28T05:09:51.131Z,6.50
2022-11-28T05:12:18.296Z,6.50
2022-11-28T05:14:45.115Z,6.50
2022-11-28T05:17:13.215Z,6.50
2022-11-28T05:19:40.079Z,6.50
2022-11-28T05:22:06.944Z,6.50
2022-11-28T05:24:33.801Z,6.40
2022-11-28T05:27:00.901Z,6.50
2022-11-28T05:29:27.668Z,6.50
2022-11-28T05:31:54.575Z,6.50
2022-11-28T05:34:21.538Z,6.40
2022-11-28T05:36:48.350Z,6.30
2022-11-28T05:39:15.218Z,6.30
2022-11-28T05:41:41.998Z,6.30
2022-11-28T05:44:10.248Z,6.30
2022-11-28T05:46:36.996Z,6.30
2022-11-28T05:49:03.821Z,6.30
2022-11-28T05:51:30.555Z,6.40
2022-11-28T05:53:57.416Z,6.30
2022-11-28T05:56:24.346Z,6.30
2022-11-28T05:58:52.351Z,6.30
2022-11-28T06:01:20.599Z,6.30
2022-11-28T06:03:47.375Z,6.30
2022-11-28T06:06:14.132Z,6.30
2022-11-28T06:08:41.150Z,6.30
2022-11-28T06:11:08.443Z,6.30
2022-11-28T06:13:35.296Z,6.20
2022-11-28T06:16:02.347Z,6.30
2022-11-28T06:18:29.191Z,6.30
2022-11-28T06:20:56.023Z,6.30
2022-11-28T06:23:22.840Z,6.30
2022-11-28T06:25:49.767Z,6.30
2022-11-28T06:28:16.939Z,6.30
2022-11-28T06:30:44.471Z,6.30
2022-11-28T06:33:11.330Z,6.30
2022-11-28T06:35:38.036Z,6.40
2022-11-28T06:38:04.845Z,6.40
2022-11-28T06:40:32.231Z,6.50
2022-11-28T06:42:59.059Z,6.50
2022-11-28T06:45:25.998Z,6.50
2022-11-28T06:47:52.894Z,6.50
2022-11-28T06:50:19.795Z,6.50
2022-11-28T06:52:46.581Z,6.50
2022-11-28T06:55:13.692Z,6.50
2022-11-28T06:57:40.514Z,6.50
2022-11-28T07:00:07.662Z,6.50
2022-11-28T07:02:34.510Z,6.40
2022-11-28T07:05:01.415Z,6.40
2022-11-28T07:07:28.225Z,6.40
2022-11-28T07:09:55.081Z,6.40
2022-11-28T07:12:21.878Z,6.50
2022-11-28T07:14:48.731Z,6.50
2022-11-28T07:17:15.612Z,6.50
2022-11-28T07:19:42.647Z,6.60
2022-11-28T07:22:11.480Z,6.60
2022-11-28T07:24:38.267Z,6.60
2022-11-28T07:27:07.630Z,6.70
2022-11-28T07:29:37.553Z,6.70
2022-11-28T07:32:05.923Z,6.80
2022-11-28T07:34:32.879Z,6.90
2022-11-28T07:37:00.021Z,7.00
2022-11-28T07:39:26.786Z,7.00
2022-11-28T07:41:53.585Z,7.10
2022-11-28T07:44:21.373Z,7.10
2022-11-28T07:46:48.432Z,7.10
2022-11-28T07:49:15.583Z,7.20
2022-11-28T07:51:42.531Z,7.20
2022-11-28T07:54:09.485Z,7.10
2022-11-28T07:57:10.915Z,7.20
2022-11-28T07:59:24.028Z,7.30
2022-11-28T08:01:50.886Z,7.30
2022-11-28T08:04:17.770Z,7.30
2022-11-28T08:06:44.821Z,7.30
2022-11-28T08:09:14.745Z,7.30
2022-11-28T10:42:03.794Z,9.10
2022-11-28T10:44:36.960Z,9.10
2022-11-28T10:47:13.491Z,9.20
2022-11-28T10:50:19.128Z,9.30
2022-11-28T10:53:15.421Z,9.30
2022-11-28T10:55:57.359Z,9.40
2022-11-28T10:58:27.449Z,9.40
2022-11-28T11:00:55.341Z,9.40
2022-11-28T11:03:26.190Z,9.40
2022-11-28T11:06:13.096Z,9.40
2022-11-28T11:08:41.113Z,9.40
2022-11-28T11:11:19.758Z,9.50
2022-11-28T11:14:13.360Z,9.50
2022-11-28T11:16:48.512Z,9.60
2022-11-28T11:19:32.252Z,9.60
2022-11-28T11:22:02.262Z,9.60
2022-11-28T11:24:29.110Z,9.60
2022-11-28T11:27:03.347Z,9.60
2022-11-28T11:29:32.357Z,9.70
2022-11-28T11:32:03.791Z,9.60
2022-11-28T11:34:57.134Z,9.60
2022-11-28T11:37:34.732Z,9.60
2022-11-28T11:40:02.200Z,9.70
2022-11-28T11:42:30.551Z,9.70
2022-11-28T11:44:58.330Z,9.70
2022-11-28T11:47:44.402Z,9.70
2022-11-28T11:50:19.382Z,9.70
2022-11-28T11:53:01.668Z,9.60
2022-11-28T11:55:29.611Z,9.50
2022-11-28T12:00:39.381Z,9.50
2022-11-28T12:03:16.661Z,9.40
2022-11-28T12:06:13.411Z,9.40
2022-11-28T12:09:05.285Z,9.40
2022-11-28T12:11:47.088Z,9.30
2022-11-28T12:14:28.650Z,9.30
2022-11-28T12:16:59.216Z,9.30
2022-11-28T12:20:05.450Z,9.30
2022-11-28T12:26:33.858Z,9.20
2022-11-28T12:29:17.953Z,9.10
2022-11-28T12:31:44.889Z,9.10
2022-11-28T12:34:20.909Z,9.20
2022-11-28T12:37:00.170Z,9.10
2022-11-28T12:39:38.693Z,9.10
2022-11-28T12:42:44.164Z,9.10
2022-11-28T12:45:29.946Z,9.10
2022-11-28T12:48:16.120Z,9.00
2022-11-28T12:50:45.683Z,9.00
2022-11-28T12:53:22.117Z,9.10
2022-11-28T12:56:12.290Z,9.10
2022-11-28T12:59:04.891Z,9.10
2022-11-28T13:01:45.087Z,9.20
2022-11-28T13:04:28.821Z,9.20
2022-11-28T13:07:18.843Z,9.20
2022-11-28T13:10:01.648Z,9.30
2022-11-28T13:12:46.229Z,9.30
2022-11-28T13:15:15.993Z,9.30
2022-11-28T13:17:45.806Z,9.30
2022-11-28T13:20:21.767Z,9.20
2022-11-28T13:22:57.626Z,9.10
2022-11-28T13:25:24.548Z,9.00
2022-11-28T13:27:59.122Z,8.90
2022-11-28T13:30:26.937Z,9.00
2022-11-28T13:32:56.764Z,9.10
2022-11-28T13:35:23.921Z,9.10
2022-11-28T13:40:55.085Z,9.20
2022-11-28T13:43:40.399Z,9.20
2022-11-28T13:46:08.027Z,9.20
2022-11-28T13:49:13.239Z,9.10
2022-11-28T13:51:30.523Z,9.00
2022-11-28T13:54:17.545Z,9.00
2022-11-28T13:56:45.429Z,9.00
2022-11-28T13:59:17.696Z,8.90
2022-11-28T14:01:45.791Z,8.90
2022-11-28T14:04:14.438Z,9.00
2022-11-28T14:06:54.492Z,9.00
2022-11-28T14:09:24.494Z,9.00
2022-11-28T14:11:57.319Z,9.00
2022-11-28T14:14:39.724Z,9.00
2022-11-28T14:17:15.956Z,8.70
2022-11-28T14:20:01.675Z,8.70
2022-11-28T14:22:43.128Z,8.80
2022-11-28T14:25:16.408Z,8.80
2022-11-28T14:27:48.785Z,8.80
2022-11-28T14:30:48.288Z,8.80
2022-11-28T14:33:18.233Z,8.80
2022-11-28T14:35:52.065Z,8.70
2022-11-28T14:38:40.903Z,8.70
2022-11-28T14:41:11.946Z,8.70
2022-11-28T14:43:42.650Z,8.60
2022-11-28T14:46:30.767Z,8.60
2022-11-28T14:48:58.730Z,8.50
2022-11-28T14:51:44.049Z,8.40
2022-11-28T14:54:31.245Z,8.50
2022-11-28T14:57:00.172Z,8.40
2022-11-28T14:59:28.443Z,8.30
2022-11-28T15:01:58.045Z,8.30
2022-11-28T15:04:31.720Z,8.30
2022-11-28T15:06:59.786Z,8.20
2022-11-28T15:09:34.294Z,8.20
2022-11-28T15:12:08.474Z,8.10
2022-11-28T15:14:37.580Z,8.10
2022-11-28T15:17:07.507Z,8.00
2022-11-28T15:19:47.449Z,7.90
2022-11-28T15:22:31.905Z,7.80
2022-11-28T15:24:59.219Z,7.80
2022-11-28T15:27:27.314Z,7.70
2022-11-28T15:29:55.443Z,7.60
2022-11-28T15:32:22.947Z,7.60
2022-11-28T15:35:06.465Z,7.50
2022-11-28T15:37:36.210Z,7.50
2022-11-28T15:40:04.521Z,7.40
2022-11-28T15:42:35.519Z,7.30
2022-11-28T15:45:08.937Z,7.20
2022-11-28T15:47:37.448Z,7.10
2022-11-28T15:50:13.579Z,7.10
2022-11-28T15:52:40.815Z,7.10
2022-11-28T15:55:16.791Z,7.00
2022-11-28T15:57:43.530Z,7.00
2022-11-28T16:00:17.871Z,7.00
2022-11-28T16:03:13.859Z,7.00
2022-11-28T16:05:40.627Z,6.90
2022-11-28T16:08:22.302Z,6.80
2022-11-28T16:10:49.147Z,6.80
2022-11-28T16:13:19.443Z,6.80
2022-11-28T16:15:49.846Z,6.70
2022-11-28T16:18:17.340Z,6.70
2022-11-28T16:20:44.244Z,6.70
2022-11-28T16:23:17.401Z,6.60
2022-11-28T16:25:44.156Z,6.60
2022-11-28T16:28:30.873Z,6.60
2022-11-28T16:30:57.885Z,6.60
2022-11-28T16:33:33.781Z,6.60
2022-11-28T16:36:09.826Z,6.50
2022-11-28T16:38:37.091Z,6.60
2022-11-28T16:41:03.878Z,6.50
2022-11-28T16:43:40.424Z,6.60
2022-11-28T16:46:08.632Z,6.50
2022-11-28T16:48:36.447Z,6.50
2022-11-28T16:51:03.263Z,6.50
2022-11-28T16:53:48.445Z,6.60
2022-11-28T16:56:25.940Z,6.60
2022-11-28T16:58:55.056Z,6.60
2022-11-28T17:01:21.937Z,6.70
2022-11-28T17:03:50.632Z,6.70
2022-11-28T17:06:34.226Z,6.80
2022-11-28T17:09:01.561Z,6.80
2022-11-28T17:11:32.719Z,6.90
2022-11-28T17:14:02.436Z,6.90
2022-11-28T17:16:30.262Z,7.00
2022-11-28T17:18:57.075Z,7.00
2022-11-28T17:21:29.721Z,7.00
2022-11-28T17:23:56.659Z,7.10
2022-11-28T17:26:23.422Z,7.00
2022-11-28T17:28:50.225Z,7.10
2022-11-28T17:31:17.159Z,7.20
2022-11-28T17:33:45.014Z,7.20
2022-11-28T17:36:12.165Z,7.20
2022-11-28T17:38:39.481Z,7.20
2022-11-28T17:41:06.661Z,7.30
2022-11-28T17:43:38.759Z,7.30
2022-11-28T17:46:05.922Z,7.30
2022-11-28T17:48:33.013Z,7.30
2022-11-28T17:51:02.020Z,7.30
2022-11-28T17:53:28.759Z,7.40
2022-11-28T17:55:59.781Z,7.40
2022-11-28T17:58:27.757Z,7.40
2022-11-28T18:00:59.879Z,7.30
2022-11-28T18:03:27.619Z,7.30
2022-11-28T18:05:57.483Z,7.30
2022-11-28T18:08:24.455Z,7.30
2022-11-28T18:11:01.439Z,7.30
2022-11-28T18:13:28.254Z,7.30
2022-11-28T18:15:55.374Z,7.30
2022-11-28T18:18:23.254Z,7.10
2022-11-28T18:20:50.874Z,7.10
2022-11-28T18:23:17.771Z,7.10
2022-11-28T18:25:45.221Z,7.20
2022-11-28T18:28:17.376Z,7.20
2022-11-28T18:30:47.121Z,7.20
2022-11-28T18:33:14.579Z,7.30
2022-11-28T18:35:41.545Z,7.30
2022-11-28T18:38:08.872Z,7.30
2022-11-28T18:40:36.098Z,7.30
2022-11-28T18:43:03.414Z,7.30
2022-11-28T18:45:30.305Z,7.30
2022-11-28T18:48:00.219Z,7.30
2022-11-28T18:50:27.919Z,7.30
2022-11-28T18:52:55.950Z,7.40
2022-11-28T18:55:23.544Z,7.40
2022-11-28T18:57:50.442Z,7.40
2022-11-28T19:00:17.485Z,7.40
2022-11-28T19:02:44.242Z,7.40
2022-11-28T19:05:10.993Z,7.40
2022-11-28T19:07:37.754Z,7.40
2022-11-28T19:10:04.817Z,7.50
2022-11-28T19:12:31.672Z,7.50
2022-11-28T19:15:02.027Z,7.50
2022-11-28T19:17:29.788Z,7.50
2022-11-28T19:19:56.632Z,7.60
2022-11-28T19:22:23.661Z,7.60
2022-11-28T19:24:50.506Z,7.50
2022-11-28T19:27:17.636Z,7.60
2022-11-28T19:29:44.884Z,7.60
2022-11-28T19:32:13.032Z,7.60
2022-11-28T19:34:39.972Z,7.50
2022-11-28T19:37:07.913Z,7.60
2022-11-28T19:39:34.722Z,7.60
2022-11-28T19:42:01.528Z,7.60
2022-11-28T19:44:29.406Z,7.60
2022-11-28T19:46:56.430Z,7.60
2022-11-28T19:49:24.275Z,7.60
2022-11-28T19:51:51.567Z,7.60
2022-11-28T19:54:22.176Z,7.60
2022-11-28T19:56:49.327Z,7.60
2022-11-28T19:59:16.230Z,7.60
2022-11-28T20:01:43.480Z,7.60
2022-11-28T20:04:11.096Z,7.60
2022-11-28T20:06:38.433Z,7.60
2022-11-28T20:09:07.201Z,7.60
2022-11-28T20:11:36.647Z,7.60
2022-11-28T20:14:09.757Z,7.60
2022-11-28T20:16:37.144Z,7.60
2022-11-28T20:19:04.855Z,7.60
2022-11-28T20:21:33.248Z,7.60
2022-11-28T20:24:04.566Z,7.60
2022-11-28T20:26:35.045Z,7.70
2022-11-28T20:29:03.486Z,7.70
2022-11-28T20:31:35.421Z,7.60
2022-11-28T20:34:04.242Z,7.60
2022-11-28T20:36:33.250Z,7.60
2022-11-28T20:39:01.011Z,7.60
2022-11-28T20:41:28.071Z,7.50
2022-11-28T20:43:54.883Z,7.50
2022-11-28T20:46:23.524Z,7.50
2022-11-28T20:48:50.698Z,7.50
2022-11-28T20:51:22.154Z,7.60
2022-11-28T20:53:48.936Z,7.60
2022-11-28T20:56:17.512Z,7.60
2022-11-28T20:58:44.797Z,7.60
2022-11-28T21:01:18.138Z,7.60
2022-11-28T21:03:45.296Z,7.40
2022-11-28T21:06:12.310Z,7.50
2022-11-28T21:08:39.138Z,7.50
2022-11-28T21:11:09.776Z,7.50
2022-11-28T21:13:36.602Z,7.50
2022-11-28T21:16:23.028Z,7.50
2022-11-28T21:18:50.028Z,7.50
2022-11-28T21:21:18.753Z,7.50
2022-11-28T21:23:45.887Z,7.50
2022-11-28T21:26:14.478Z,7.40
2022-11-28T21:28:41.811Z,7.40
2022-11-28T21:31:10.074Z,7.40
2022-11-28T21:33:37.182Z,7.40
2022-11-28T21:36:04.772Z,7.40
2022-11-28T21:38:32.143Z,7.30
2022-11-28T21:40:59.369Z,7.40
2022-11-28T21:43:27.973Z,7.40
2022-11-28T21:45:55.198Z,7.20
2022-11-28T21:48:22.695Z,7.30
2022-11-28T21:50:50.725Z,7.30
2022-11-28T21:53:18.084Z,7.20
2022-11-28T21:55:44.889Z,7.20
2022-11-28T21:58:11.751Z,7.20
2022-11-28T22:00:53.083Z,7.20
2022-11-28T22:03:21.157Z,7.20
2022-11-28T22:05:48.457Z,7.20
2022-11-28T22:08:17.115Z,7.20
2022-11-28T22:10:43.877Z,7.10
2022-11-28T22:13:10.671Z,7.10
2022-11-28T22:15:43.859Z,7.10
2022-11-28T22:18:11.236Z,7.10
2022-11-28T22:20:43.588Z,7.10
2022-11-28T22:23:11.379Z,7.10
2022-11-28T22:25:38.183Z,7.10
2022-11-28T22:28:04.962Z,7.00
2022-11-28T22:30:31.782Z,6.90
2022-11-28T22:32:58.594Z,6.90
2022-11-28T22:35:25.317Z,6.90
2022-11-28T22:37:53.878Z,6.90
2022-11-28T22:40:21.162Z,6.90
2022-11-28T22:42:48.293Z,6.90
2022-11-28T22:45:15.269Z,6.90
2022-11-28T22:47:42.522Z,6.80
2022-11-28T22:50:09.375Z,6.90
2022-11-28T22:52:36.306Z,6.90
2022-11-28T22:55:03.463Z,6.90
2022-11-28T22:57:30.322Z,6.80
2022-11-28T22:59:57.445Z,6.80
2022-11-28T23:02:24.389Z,6.80
2022-11-28T23:04:51.573Z,6.80
2022-11-28T23:07:18.453Z,6.80
2022-11-28T23:09:45.237Z,6.80
2022-11-28T23:12:11.993Z,6.80
